createdAt,value
2023-02-11T00:01:09.223Z,30.33
2023-02-11T00:03:31.690Z,32.17
2023-02-11T00:06:00.741Z,33.40
2023-02-11T00:08:22.999Z,31.50
2023-02-11T00:10:46.385Z,30.83
2023-02-11T00:13:08.828Z,30.90
2023-02-11T00:15:31.114Z,31.17
2023-02-11T00:17:53.400Z,31.60
2023-02-11T00:20:15.867Z,31.57
2023-02-11T00:22:38.119Z,31.87
2023-02-11T00:25:00.385Z,32.97
2023-02-11T00:27:22.668Z,30.97
2023-02-11T00:29:44.923Z,30.23
2023-02-11T00:32:08.917Z,30.23
2023-02-11T00:34:31.443Z,30.80
2023-02-11T00:36:54.997Z,33.03
2023-02-11T00:39:17.274Z,31.50
2023-02-11T00:41:39.519Z,31.20
2023-02-11T00:44:02.848Z,30.00
2023-02-11T00:46:25.114Z,30.63
2023-02-11T00:48:47.430Z,31.33
2023-02-11T00:51:10.008Z,31.00
2023-02-11T00:53:32.860Z,29.40
2023-02-11T00:55:55.098Z,30.27
2023-02-11T00:58:17.584Z,29.23
2023-02-11T01:00:40.086Z,31.50
2023-02-11T01:03:02.383Z,31.33
2023-02-11T01:05:24.662Z,85.23
2023-02-11T01:07:47.123Z,36.70
2023-02-11T01:10:09.503Z,32.93
2023-02-11T01:12:33.485Z,31.17
2023-02-11T01:14:56.794Z,30.37
2023-02-11T01:17:19.075Z,32.10
2023-02-11T01:19:41.560Z,30.77
2023-02-11T01:22:03.865Z,32.20
2023-02-11T01:24:26.268Z,31.27
2023-02-11T01:26:48.530Z,32.57
2023-02-11T01:29:10.800Z,30.17
2023-02-11T01:31:33.237Z,29.33
2023-02-11T01:33:56.236Z,30.53
2023-02-11T01:36:18.463Z,28.83
2023-02-11T01:38:41.143Z,31.77
2023-02-11T01:41:05.974Z,29.73
2023-02-11T01:43:36.221Z,29.37
2023-02-11T01:46:01.644Z,30.00
2023-02-11T01:48:29.601Z,28.13
2023-02-11T01:50:53.882Z,28.87
2023-02-11T01:53:35.641Z,30.30
2023-02-11T01:56:17.527Z,27.93
2023-02-11T01:58:41.854Z,27.90
2023-02-11T02:01:05.115Z,27.47
2023-02-11T02:03:27.713Z,27.47
2023-02-11T02:06:11.434Z,26.73
2023-02-11T02:08:52.776Z,28.30
2023-02-11T02:11:15.123Z,26.43
2023-02-11T02:13:37.352Z,28.00
2023-02-11T02:16:01.417Z,29.43
2023-02-11T02:18:38.097Z,26.10
2023-02-11T02:21:00.358Z,26.93
2023-02-11T02:23:41.719Z,25.47
2023-02-11T02:26:19.716Z,26.03
2023-02-11T02:29:00.952Z,25.50
2023-02-11T02:31:49.686Z,23.03
2023-02-11T02:34:20.467Z,24.03
2023-02-11T02:36:46.001Z,23.67
2023-02-11T02:39:26.899Z,25.63
2023-02-11T02:41:50.382Z,24.27
2023-02-11T02:44:12.843Z,26.77
2023-02-11T02:46:36.268Z,24.37
2023-02-11T02:48:58.939Z,24.90
2023-02-11T02:51:39.354Z,25.57
2023-02-11T02:54:01.558Z,25.73
2023-02-11T02:56:32.980Z,24.63
2023-02-11T02:59:04.904Z,24.57
2023-02-11T03:01:39.291Z,27.23
2023-02-11T03:04:14.358Z,26.13
2023-02-11T03:06:36.567Z,25.17
2023-02-11T03:09:12.759Z,26.70
2023-02-11T03:11:35.622Z,26.27
2023-02-11T03:14:01.087Z,24.47
2023-02-11T03:16:27.645Z,26.13
2023-02-11T03:19:22.512Z,27.17
2023-02-11T03:21:45.227Z,25.90
2023-02-11T03:24:09.628Z,27.37
2023-02-11T03:26:37.054Z,26.17
2023-02-11T03:29:05.319Z,26.70
2023-02-11T03:31:37.322Z,25.07
2023-02-11T03:34:14.377Z,26.03
2023-02-11T03:36:41.052Z,26.10
2023-02-11T03:39:03.887Z,27.80
2023-02-11T03:41:26.279Z,27.80
2023-02-11T03:43:50.510Z,26.87
2023-02-11T03:46:14.433Z,27.00
2023-02-11T03:48:42.039Z,27.17
2023-02-11T03:51:06.942Z,38.03
2023-02-11T03:53:29.142Z,26.53
2023-02-11T03:55:53.082Z,25.90
2023-02-11T03:58:15.535Z,26.13
2023-02-11T04:00:39.759Z,27.10
2023-02-11T04:03:02.112Z,27.43
2023-02-11T04:05:24.308Z,25.80
2023-02-11T04:07:46.628Z,25.47
2023-02-11T04:10:09.145Z,27.70
2023-02-11T04:12:31.455Z,27.50
2023-02-11T04:14:53.783Z,28.20
2023-02-11T04:17:16.086Z,26.70
2023-02-11T04:19:38.322Z,27.93
2023-02-11T04:22:00.558Z,25.10
2023-02-11T04:24:22.746Z,27.30
2023-02-11T04:26:44.997Z,28.23
2023-02-11T04:29:07.245Z,27.97
2023-02-11T04:31:29.531Z,28.90
2023-02-11T04:33:51.795Z,28.67
2023-02-11T04:36:14.163Z,31.53
2023-02-11T04:38:36.398Z,29.50
2023-02-11T04:41:00.479Z,29.83
2023-02-11T04:43:22.852Z,30.40
2023-02-11T04:45:45.080Z,31.53
2023-02-11T04:48:07.310Z,31.23
2023-02-11T04:50:29.724Z,30.60
2023-02-11T04:52:51.942Z,29.47
2023-02-11T04:55:14.283Z,33.43
2023-02-11T04:57:36.614Z,29.90
2023-02-11T04:59:58.946Z,29.83
2023-02-11T05:02:21.127Z,30.93
2023-02-11T05:04:43.358Z,29.23
2023-02-11T05:07:05.598Z,28.90
2023-02-11T05:09:27.903Z,28.53
2023-02-11T05:11:50.638Z,30.97
2023-02-11T05:14:13.030Z,29.10
2023-02-11T05:16:35.626Z,29.27
2023-02-11T05:18:58.560Z,29.77
2023-02-11T05:21:20.840Z,24.70
2023-02-11T05:23:43.323Z,27.67
2023-02-11T05:26:06.050Z,29.07
2023-02-11T05:28:28.396Z,27.90
2023-02-11T05:30:50.685Z,27.87
2023-02-11T05:33:13.035Z,25.00
2023-02-11T05:35:35.275Z,27.37
2023-02-11T05:37:57.534Z,25.30
2023-02-11T05:40:19.960Z,25.67
2023-02-11T05:42:42.201Z,29.37
2023-02-11T05:45:04.934Z,26.23
2023-02-11T05:47:27.262Z,26.53
2023-02-11T05:49:50.098Z,28.57
2023-02-11T05:52:13.408Z,28.30
2023-02-11T05:54:35.722Z,27.73
2023-02-11T05:56:58.061Z,30.40
2023-02-11T05:59:20.386Z,28.07
2023-02-11T06:01:43.341Z,26.17
2023-02-11T06:04:05.613Z,27.57
2023-02-11T06:06:27.946Z,26.30
2023-02-11T06:08:50.203Z,28.80
2023-02-11T06:11:12.628Z,28.37
2023-02-11T06:13:38.206Z,26.50
2023-02-11T06:16:01.466Z,26.20
2023-02-11T06:18:24.061Z,24.80
2023-02-11T06:20:46.456Z,24.50
2023-02-11T06:23:09.951Z,25.37
2023-02-11T06:25:32.435Z,27.47
2023-02-11T06:28:01.411Z,28.00
2023-02-11T06:30:24.113Z,26.73
2023-02-11T06:32:46.871Z,28.77
2023-02-11T06:35:11.939Z,30.07
2023-02-11T06:37:35.441Z,31.40
2023-02-11T06:39:57.901Z,30.60
2023-02-11T06:42:20.560Z,30.93
2023-02-11T06:44:43.132Z,30.87
2023-02-11T06:47:05.634Z,28.67
2023-02-11T06:49:27.887Z,30.77
2023-02-11T06:51:50.311Z,31.90
2023-02-11T06:54:13.290Z,30.27
2023-02-11T06:56:36.865Z,30.20
2023-02-11T06:58:59.151Z,32.03
2023-02-11T07:01:21.640Z,31.00
2023-02-11T07:03:45.046Z,33.00
2023-02-11T07:06:08.508Z,30.27
2023-02-11T07:08:30.708Z,28.87
2023-02-11T07:10:52.955Z,33.83
2023-02-11T07:13:15.149Z,32.57
2023-02-11T07:15:38.370Z,30.50
2023-02-11T07:18:00.630Z,31.77
2023-02-11T07:20:22.867Z,31.67
2023-02-11T07:22:45.128Z,31.63
2023-02-11T07:25:07.444Z,32.27
2023-02-11T07:27:29.645Z,31.27
2023-02-11T07:29:51.950Z,33.03
2023-02-11T07:32:14.614Z,31.33
2023-02-11T07:34:36.979Z,30.53
2023-02-11T07:36:59.229Z,30.97
2023-02-11T07:39:22.557Z,30.73
2023-02-11T07:41:47.889Z,29.87
2023-02-11T07:44:10.197Z,30.20
2023-02-11T07:46:32.809Z,29.57
2023-02-11T07:48:55.669Z,29.20
2023-02-11T07:51:19.205Z,33.57
2023-02-11T07:53:41.574Z,34.33
2023-02-11T07:56:04.854Z,30.47
2023-02-11T07:58:27.076Z,29.67
2023-02-11T08:00:49.462Z,30.73
2023-02-11T08:03:11.682Z,30.40
2023-02-11T08:05:34.017Z,29.57
2023-02-11T08:07:56.192Z,30.67
2023-02-11T08:10:18.449Z,29.10
2023-02-11T08:12:40.661Z,30.63
2023-02-11T08:15:02.903Z,28.60
2023-02-11T08:17:25.163Z,29.30
2023-02-11T08:19:47.369Z,29.07
2023-02-11T08:22:09.635Z,30.07
2023-02-11T08:24:31.897Z,28.43
2023-02-11T08:26:54.123Z,27.83
2023-02-11T08:29:17.160Z,26.77
2023-02-11T08:31:41.021Z,28.93
2023-02-11T08:34:03.740Z,27.03
2023-02-11T08:36:27.334Z,28.00
2023-02-11T08:38:49.718Z,28.30
2023-02-11T08:41:14.795Z,26.57
2023-02-11T08:43:41.668Z,27.37
2023-02-11T08:46:04.374Z,26.30
2023-02-11T08:48:28.554Z,26.57
2023-02-11T08:50:50.882Z,23.63
2023-02-11T08:53:13.409Z,25.23
2023-02-11T08:55:35.771Z,25.27
2023-02-11T08:57:58.003Z,25.87
2023-02-11T09:00:20.747Z,25.43
2023-02-11T09:02:46.533Z,24.83
2023-02-11T09:05:09.837Z,25.43
2023-02-11T09:07:32.159Z,25.70
2023-02-11T09:09:54.367Z,24.30
2023-02-11T09:12:16.623Z,25.23
2023-02-11T09:14:38.888Z,23.70
2023-02-11T09:17:01.296Z,25.47
2023-02-11T09:19:23.856Z,25.27
2023-02-11T09:21:46.550Z,24.93
2023-02-11T09:24:08.776Z,24.87
2023-02-11T09:26:32.905Z,25.70
2023-02-11T09:28:55.291Z,26.00
2023-02-11T09:31:18.887Z,24.47
2023-02-11T09:33:47.936Z,24.43
2023-02-11T09:36:10.399Z,28.67
2023-02-11T09:38:33.097Z,26.60
2023-02-11T09:40:55.399Z,26.03
2023-02-11T09:43:21.827Z,27.47
2023-02-11T09:45:44.304Z,26.30
2023-02-11T09:48:11.517Z,26.37
2023-02-11T09:50:40.504Z,27.87
2023-02-11T09:53:10.855Z,26.60
2023-02-11T09:55:39.729Z,25.40
2023-02-11T09:58:03.031Z,25.23
2023-02-11T10:00:29.209Z,27.20
2023-02-11T10:03:01.880Z,25.93
2023-02-11T10:05:44.519Z,25.50
2023-02-11T10:08:16.851Z,25.67
2023-02-11T10:10:42.289Z,26.33
2023-02-11T10:13:16.780Z,25.30
2023-02-11T10:16:02.382Z,25.87
2023-02-11T10:18:39.753Z,24.17
2023-02-11T10:21:24.830Z,24.03
2023-02-11T10:23:49.082Z,24.27
2023-02-11T10:26:13.984Z,23.80
2023-02-11T10:28:39.027Z,24.37
2023-02-11T10:31:07.711Z,23.93
2023-02-11T10:33:32.594Z,22.53
2023-02-11T10:35:55.009Z,22.77
2023-02-11T10:38:17.342Z,22.97
2023-02-11T10:40:39.530Z,22.70
2023-02-11T10:43:03.617Z,23.20
2023-02-11T10:45:28.953Z,23.60
2023-02-11T10:47:51.523Z,23.00
2023-02-11T10:50:40.150Z,21.27
2023-02-11T10:53:24.623Z,22.00
2023-02-11T10:56:05.679Z,23.00
2023-02-11T10:58:47.982Z,23.37
2023-02-11T11:01:24.012Z,33.10
2023-02-11T11:03:51.204Z,23.70
2023-02-11T11:06:14.009Z,22.37
2023-02-11T11:08:46.966Z,32.40
2023-02-11T11:11:13.857Z,23.53
2023-02-11T11:13:49.963Z,21.97
2023-02-11T11:16:22.842Z,23.67
2023-02-11T11:18:49.774Z,22.20
2023-02-11T11:21:17.389Z,21.97
2023-02-11T11:23:40.250Z,21.27
2023-02-11T11:26:02.774Z,20.47
2023-02-11T11:28:27.144Z,20.97
2023-02-11T11:30:49.895Z,21.37
2023-02-11T11:33:32.033Z,19.93
2023-02-11T11:35:57.513Z,18.43
2023-02-11T11:38:19.854Z,18.37
2023-02-11T11:40:42.147Z,18.53
2023-02-11T11:43:04.556Z,17.00
2023-02-11T11:45:27.922Z,16.53
2023-02-11T11:48:02.602Z,18.50
2023-02-11T11:50:36.755Z,18.27
2023-02-11T11:53:05.805Z,18.50
2023-02-11T11:55:31.923Z,16.97
2023-02-11T11:57:54.359Z,18.03
2023-02-11T12:00:19.794Z,17.93
2023-02-11T12:02:42.147Z,17.17
2023-02-11T12:05:10.644Z,19.27
2023-02-11T12:07:50.962Z,18.97
2023-02-11T12:10:32.108Z,19.47
2023-02-11T12:13:12.339Z,19.50
2023-02-11T12:15:44.664Z,19.33
2023-02-11T12:18:10.546Z,19.40
2023-02-11T12:20:52.202Z,20.23
2023-02-11T12:23:33.444Z,21.47
2023-02-11T12:26:22.093Z,23.03
2023-02-11T12:29:04.954Z,22.27
2023-02-11T12:31:47.020Z,21.30
2023-02-11T12:34:38.777Z,21.80
2023-02-11T12:37:20.015Z,22.50
2023-02-11T12:39:48.630Z,23.27
2023-02-11T12:42:47.100Z,22.20
2023-02-11T12:45:12.535Z,20.87
2023-02-11T12:47:38.217Z,21.30
2023-02-11T12:50:09.238Z,21.23
2023-02-11T12:52:52.267Z,21.13
2023-02-11T12:55:14.601Z,20.57
2023-02-11T12:57:38.825Z,20.27
2023-02-11T13:00:04.610Z,20.07
2023-02-11T13:02:48.139Z,20.30
2023-02-11T13:05:12.660Z,19.50
2023-02-11T13:07:39.907Z,18.80
2023-02-11T13:10:07.635Z,19.70
2023-02-11T13:12:49.451Z,21.27
2023-02-11T13:15:14.821Z,19.83
2023-02-11T13:17:57.542Z,19.80
2023-02-11T13:20:36.788Z,19.17
2023-02-11T13:23:25.778Z,19.07
2023-02-11T13:25:54.126Z,20.13
2023-02-11T13:28:36.332Z,19.00
2023-02-11T13:31:06.941Z,20.47
2023-02-11T13:33:39.564Z,18.27
2023-02-11T13:36:04.470Z,18.33
2023-02-11T13:38:28.376Z,18.60
2023-02-11T13:41:13.635Z,20.17
2023-02-11T13:43:37.160Z,19.03
2023-02-11T13:46:01.043Z,20.00
2023-02-11T13:48:24.865Z,17.53
2023-02-11T13:50:48.948Z,18.00
2023-02-11T13:53:11.271Z,39.57
2023-02-11T13:55:34.853Z,21.47
2023-02-11T13:58:09.327Z,19.93
2023-02-11T14:00:34.553Z,16.57
2023-02-11T14:03:30.846Z,17.17
2023-02-11T14:06:27.161Z,16.00
2023-02-11T14:09:08.857Z,15.20
2023-02-11T14:11:33.848Z,16.47
2023-02-11T14:13:56.121Z,15.27
2023-02-11T14:16:36.526Z,15.83
2023-02-11T14:19:01.822Z,16.70
2023-02-11T14:21:29.710Z,14.93
2023-02-11T14:23:56.123Z,14.80
2023-02-11T14:26:21.517Z,13.87
2023-02-11T14:28:46.967Z,15.03
2023-02-11T14:31:11.605Z,13.97
2023-02-11T14:33:41.785Z,13.27
2023-02-11T14:36:16.281Z,12.70
2023-02-11T14:38:44.653Z,12.70
2023-02-11T14:41:06.952Z,12.50
2023-02-11T14:43:32.365Z,11.93
2023-02-11T14:45:56.671Z,11.63
2023-02-11T14:48:19.822Z,11.70
2023-02-11T14:50:53.748Z,12.30
2023-02-11T14:53:20.586Z,12.57
2023-02-11T14:55:44.035Z,13.33
2023-02-11T14:58:14.347Z,12.03
2023-02-11T15:00:36.546Z,12.40
2023-02-11T15:02:58.820Z,13.60
2023-02-11T15:05:26.470Z,16.80
2023-02-11T15:07:50.363Z,16.20
2023-02-11T15:10:26.424Z,15.80
2023-02-11T15:12:50.542Z,17.27
2023-02-11T15:15:14.760Z,15.73
2023-02-11T15:17:36.997Z,16.50
2023-02-11T15:20:01.269Z,16.30
2023-02-11T15:22:25.886Z,15.30
2023-02-11T15:25:08.925Z,16.20
2023-02-11T15:27:40.484Z,15.97
2023-02-11T15:30:02.812Z,16.23
2023-02-11T15:32:26.365Z,17.27
2023-02-11T15:34:49.760Z,16.73
2023-02-11T15:37:14.479Z,15.43
2023-02-11T15:39:41.453Z,15.37
2023-02-11T15:42:24.290Z,15.17
2023-02-11T15:44:50.504Z,16.83
2023-02-11T15:47:21.165Z,15.53
2023-02-11T15:49:45.163Z,16.07
2023-02-11T15:52:08.420Z,16.43
2023-02-11T15:54:32.233Z,16.57
2023-02-11T15:56:59.839Z,15.93
2023-02-11T15:59:30.660Z,17.17
2023-02-11T16:01:53.724Z,17.13
2023-02-11T16:04:23.620Z,17.60
2023-02-11T16:06:49.077Z,16.30
2023-02-11T16:09:11.434Z,17.27
2023-02-11T16:11:35.005Z,17.53
2023-02-11T16:13:59.360Z,18.17
2023-02-11T16:16:27.032Z,17.50
2023-02-11T16:19:04.238Z,17.17
2023-02-11T16:21:45.699Z,16.53
2023-02-11T16:24:08.999Z,16.73
2023-02-11T16:26:34.001Z,16.73
2023-02-11T16:29:03.599Z,16.97
2023-02-11T16:31:32.992Z,16.77
2023-02-11T16:33:55.251Z,17.23
2023-02-11T16:36:17.533Z,17.93
2023-02-11T16:38:39.876Z,17.10
2023-02-11T16:41:02.307Z,17.97
2023-02-11T16:43:24.809Z,17.27
2023-02-11T16:45:47.469Z,18.23
2023-02-11T16:48:10.646Z,17.17
2023-02-11T16:50:32.877Z,19.77
2023-02-11T16:52:55.126Z,17.20
2023-02-11T16:55:18.036Z,17.53
2023-02-11T16:57:40.437Z,18.27
2023-02-11T17:00:02.685Z,17.27
2023-02-11T17:02:31.967Z,17.53
2023-02-11T17:04:55.308Z,17.87
2023-02-11T17:07:17.586Z,16.90
2023-02-11T17:09:40.048Z,18.27
2023-02-11T17:12:02.284Z,18.33
2023-02-11T17:14:24.682Z,19.03
2023-02-11T17:16:47.772Z,19.67
2023-02-11T17:19:14.022Z,18.63
2023-02-11T17:21:36.559Z,19.53
2023-02-11T17:23:59.203Z,17.13
2023-02-11T17:26:21.388Z,17.37
2023-02-11T17:28:43.661Z,17.77
2023-02-11T17:31:09.618Z,18.27
2023-02-11T17:33:34.528Z,58.30
2023-02-11T17:35:58.039Z,31.97
2023-02-11T17:38:20.341Z,18.13
2023-02-11T17:40:42.731Z,47.83
2023-02-11T17:43:05.413Z,20.40
2023-02-11T17:45:27.759Z,17.63
2023-02-11T17:47:50.223Z,17.30
2023-02-11T17:50:12.619Z,18.37
2023-02-11T17:52:36.677Z,17.37
2023-02-11T17:54:59.243Z,18.40
2023-02-11T17:57:21.879Z,18.70
2023-02-11T17:59:44.267Z,21.53
2023-02-11T18:02:06.844Z,20.27
2023-02-11T18:04:29.140Z,19.10
2023-02-11T18:06:53.526Z,19.27
2023-02-11T18:09:17.902Z,19.50
2023-02-11T18:11:40.716Z,19.37
2023-02-11T18:14:04.609Z,18.87
2023-02-11T18:16:28.960Z,19.57
2023-02-11T18:18:51.314Z,18.63
2023-02-11T18:21:14.216Z,20.73
2023-02-11T18:23:36.546Z,17.13
2023-02-11T18:25:59.031Z,19.57
2023-02-11T18:28:21.511Z,18.03
2023-02-11T18:30:43.938Z,18.13
2023-02-11T18:33:08.912Z,18.17
2023-02-11T18:35:31.255Z,18.93
2023-02-11T18:37:53.585Z,17.33
2023-02-11T18:40:16.130Z,18.53
2023-02-11T18:42:38.563Z,18.43
2023-02-11T18:45:01.030Z,19.00
2023-02-11T18:47:23.315Z,18.33
2023-02-11T18:49:45.589Z,18.30
2023-02-11T18:52:08.144Z,18.37
2023-02-11T18:54:30.699Z,17.90
2023-02-11T18:56:53.316Z,18.83
2023-02-11T18:59:15.717Z,18.90
2023-02-11T19:01:40.765Z,18.87
2023-02-11T19:04:05.366Z,18.93
2023-02-11T19:06:28.675Z,19.80
2023-02-11T19:08:51.315Z,18.60
2023-02-11T19:11:14.553Z,21.50
2023-02-11T19:13:37.398Z,20.17
2023-02-11T19:15:59.735Z,19.40
2023-02-11T19:18:22.187Z,18.97
2023-02-11T19:20:45.066Z,19.17
2023-02-11T19:23:07.575Z,19.93
2023-02-11T19:25:30.051Z,20.70
2023-02-11T19:27:52.448Z,19.63
2023-02-11T19:30:14.999Z,20.60
2023-02-11T19:32:37.462Z,20.97
2023-02-11T19:34:59.790Z,19.83
2023-02-11T19:37:22.127Z,21.30
2023-02-11T19:39:44.542Z,21.30
2023-02-11T19:42:07.320Z,20.53
2023-02-11T19:44:30.129Z,19.57
2023-02-11T19:46:53.616Z,21.80
2023-02-11T19:49:17.614Z,21.80
2023-02-11T19:51:39.982Z,22.53
2023-02-11T19:54:02.595Z,117.33
2023-02-11T19:56:24.946Z,131.03
2023-02-11T19:58:47.251Z,59.30
2023-02-11T20:01:09.696Z,28.87
2023-02-11T20:03:32.107Z,30.50
2023-02-11T20:05:54.650Z,28.00
2023-02-11T20:08:17.133Z,24.17
2023-02-11T20:10:39.814Z,22.77
2023-02-11T20:13:03.870Z,22.00
2023-02-11T20:15:26.437Z,22.50
2023-02-11T20:17:48.974Z,22.77
2023-02-11T20:20:12.928Z,24.20
2023-02-11T20:22:35.385Z,23.37
2023-02-11T20:24:57.591Z,22.10
2023-02-11T20:27:20.242Z,23.80
2023-02-11T20:29:42.771Z,23.07
2023-02-11T20:32:05.817Z,23.53
2023-02-11T20:34:28.422Z,23.80
2023-02-11T20:36:54.144Z,25.00
2023-02-11T20:39:18.470Z,26.10
2023-02-11T20:41:40.844Z,23.47
2023-02-11T20:44:04.524Z,23.60
2023-02-11T20:46:28.114Z,23.77
2023-02-11T20:48:51.018Z,24.67
2023-02-11T20:51:14.800Z,22.33
2023-02-11T20:53:37.967Z,22.10
2023-02-11T20:56:02.077Z,22.47
2023-02-11T20:58:24.532Z,22.47
2023-02-11T21:00:47.180Z,22.57
2023-02-11T21:03:09.565Z,20.43
2023-02-11T21:05:31.943Z,21.33
2023-02-11T21:07:54.330Z,21.30
2023-02-11T21:10:16.998Z,21.23
2023-02-11T21:12:39.626Z,21.13
2023-02-11T21:15:05.273Z,22.13
2023-02-11T21:17:27.767Z,22.17
2023-02-11T21:19:50.064Z,20.17
2023-02-11T21:22:12.381Z,21.83
2023-02-11T21:24:34.640Z,20.37
2023-02-11T21:26:57.228Z,21.23
2023-02-11T21:29:19.632Z,21.43
2023-02-11T21:31:42.018Z,20.33
2023-02-11T21:34:05.075Z,21.77
2023-02-11T21:36:28.507Z,20.00
2023-02-11T21:38:51.121Z,21.53
2023-02-11T21:41:13.837Z,21.47
2023-02-11T21:43:36.126Z,20.00
2023-02-11T21:45:58.478Z,21.60
2023-02-11T21:48:20.935Z,20.53
2023-02-11T21:50:44.380Z,20.83
2023-02-11T21:53:09.498Z,21.33
2023-02-11T21:55:31.761Z,20.33
2023-02-11T21:57:53.983Z,20.07
2023-02-11T22:00:16.584Z,21.57
2023-02-11T22:02:39.156Z,21.07
2023-02-11T22:05:01.504Z,20.83
2023-02-11T22:07:23.807Z,20.23
2023-02-11T22:09:46.066Z,19.80
2023-02-11T22:12:08.939Z,20.47
2023-02-11T22:14:32.389Z,18.90
2023-02-11T22:16:54.759Z,21.30
2023-02-11T22:19:17.278Z,19.20
2023-02-11T22:21:39.937Z,21.87
2023-02-11T22:24:02.172Z,21.27
2023-02-11T22:26:25.033Z,20.77
2023-02-11T22:28:47.903Z,21.63
2023-02-11T22:31:13.296Z,20.70
2023-02-11T22:33:35.594Z,20.20
2023-02-11T22:36:01.804Z,21.63
2023-02-11T22:38:23.963Z,20.83
2023-02-11T22:40:46.157Z,20.70
2023-02-11T22:43:08.367Z,21.27
2023-02-11T22:45:30.675Z,20.43
2023-02-11T22:47:54.163Z,21.43
2023-02-11T22:50:16.454Z,20.40
2023-02-11T22:52:38.778Z,20.23
2023-02-11T22:55:01.176Z,20.40
2023-02-11T22:57:23.415Z,20.27
2023-02-11T22:59:45.826Z,21.27
2023-02-11T23:02:08.108Z,20.53
2023-02-11T23:04:30.732Z,21.77
2023-02-11T23:06:52.935Z,21.47
2023-02-11T23:09:15.401Z,21.67
2023-02-11T23:11:37.644Z,21.10
2023-02-11T23:13:59.948Z,20.43
2023-02-11T23:16:23.333Z,21.53
2023-02-11T23:18:46.026Z,20.97
2023-02-11T23:21:12.471Z,19.77
2023-02-11T23:23:35.122Z,20.63
2023-02-11T23:25:57.579Z,19.23
2023-02-11T23:28:19.943Z,19.37
2023-02-11T23:30:42.295Z,22.30
2023-02-11T23:33:04.540Z,19.60
2023-02-11T23:35:26.925Z,20.83
2023-02-11T23:37:52.929Z,22.67
2023-02-11T23:40:15.475Z,22.80
2023-02-11T23:42:37.702Z,23.10
2023-02-11T23:45:00.145Z,22.77
2023-02-11T23:47:22.424Z,22.70
2023-02-11T23:49:44.707Z,25.07
2023-02-11T23:52:06.959Z,24.60
2023-02-11T23:54:29.243Z,22.00
2023-02-11T23:56:51.449Z,21.73
2023-02-11T23:59:13.784Z,22.07
